sensor_id;sensor_type;location;lat;lon;timestamp;pressure;altitude;pressure_sealevel;temperature
15701;BMP180;7950;42.744;23.174;2024-03-22T00:02:07;94395.59;;;4.41
15701;BMP180;7950;42.744;23.174;2024-03-22T00:04:35;94399.16;;;4.46
15701;BMP180;7950;42.744;23.174;2024-03-22T00:07:03;94387.53;;;4.49
15701;BMP180;7950;42.744;23.174;2024-03-22T00:09:30;94398.91;;;4.48
15701;BMP180;7950;42.744;23.174;2024-03-22T00:11:58;94399.91;;;4.47
15701;BMP180;7950;42.744;23.174;2024-03-22T00:14:25;94386.72;;;4.48
15701;BMP180;7950;42.744;23.174;2024-03-22T00:16:54;94398.34;;;4.46
15701;BMP180;7950;42.744;23.174;2024-03-22T00:19:21;94391.00;;;4.36
15701;BMP180;7950;42.744;23.174;2024-03-22T00:21:49;94390.91;;;4.25
15701;BMP180;7950;42.744;23.174;2024-03-22T00:24:15;94392.03;;;4.11
15701;BMP180;7950;42.744;23.174;2024-03-22T00:26:43;94384.59;;;4.14
15701;BMP180;7950;42.744;23.174;2024-03-22T00:29:10;94380.09;;;4.28
15701;BMP180;7950;42.744;23.174;2024-03-22T00:31:38;94385.41;;;4.15
15701;BMP180;7950;42.744;23.174;2024-03-22T00:34:06;94380.25;;;4.08
15701;BMP180;7950;42.744;23.174;2024-03-22T00:36:34;94381.53;;;3.99
15701;BMP180;7950;42.744;23.174;2024-03-22T00:39:01;94388.09;;;4.02
15701;BMP180;7950;42.744;23.174;2024-03-22T00:41:29;94394.66;;;4.04
15701;BMP180;7950;42.744;23.174;2024-03-22T00:43:56;94386.91;;;3.98
15701;BMP180;7950;42.744;23.174;2024-03-22T00:46:24;94387.78;;;3.92
15701;BMP180;7950;42.744;23.174;2024-03-22T00:48:51;94388.72;;;3.97
15701;BMP180;7950;42.744;23.174;2024-03-22T00:51:20;94399.19;;;3.84
15701;BMP180;7950;42.744;23.174;2024-03-22T00:53:46;94392.03;;;3.80
15701;BMP180;7950;42.744;23.174;2024-03-22T00:56:14;94388.41;;;3.81
15701;BMP180;7950;42.744;23.174;2024-03-22T00:58:41;94390.03;;;3.75
15701;BMP180;7950;42.744;23.174;2024-03-22T01:01:09;94390.47;;;3.72
15701;BMP180;7950;42.744;23.174;2024-03-22T01:03:36;94392.41;;;3.46
15701;BMP180;7950;42.744;23.174;2024-03-22T01:06:04;94396.56;;;3.53
15701;BMP180;7950;42.744;23.174;2024-03-22T01:08:32;94404.16;;;3.48
15701;BMP180;7950;42.744;23.174;2024-03-22T01:10:59;94404.19;;;3.42
15701;BMP180;7950;42.744;23.174;2024-03-22T01:13:26;94398.28;;;3.28
15701;BMP180;7950;42.744;23.174;2024-03-22T01:15:54;94403.94;;;3.06
15701;BMP180;7950;42.744;23.174;2024-03-22T01:18:20;94410.69;;;3.07
15701;BMP180;7950;42.744;23.174;2024-03-22T01:20:48;94403.56;;;2.96
15701;BMP180;7950;42.744;23.174;2024-03-22T01:23:15;94402.41;;;2.79
15701;BMP180;7950;42.744;23.174;2024-03-22T01:25:45;94400.66;;;2.73
15701;BMP180;7950;42.744;23.174;2024-03-22T01:28:12;94400.47;;;2.68
15701;BMP180;7950;42.744;23.174;2024-03-22T01:30:39;94397.28;;;2.46
15701;BMP180;7950;42.744;23.174;2024-03-22T01:33:06;94400.50;;;2.42
15701;BMP180;7950;42.744;23.174;2024-03-22T01:35:33;94404.84;;;2.48
15701;BMP180;7950;42.744;23.174;2024-03-22T01:38:00;94404.66;;;2.56
15701;BMP180;7950;42.744;23.174;2024-03-22T01:40:27;94402.66;;;2.58
15701;BMP180;7950;42.744;23.174;2024-03-22T01:42:56;94403.66;;;2.18
15701;BMP180;7950;42.744;23.174;2024-03-22T01:45:24;94398.50;;;2.18
15701;BMP180;7950;42.744;23.174;2024-03-22T01:47:52;94399.88;;;2.01
15701;BMP180;7950;42.744;23.174;2024-03-22T01:50:22;94404.47;;;1.99
15701;BMP180;7950;42.744;23.174;2024-03-22T01:52:49;94397.91;;;2.03
15701;BMP180;7950;42.744;23.174;2024-03-22T01:55:16;94402.28;;;2.22
15701;BMP180;7950;42.744;23.174;2024-03-22T01:57:43;94404.09;;;2.15
15701;BMP180;7950;42.744;23.174;2024-03-22T02:00:14;94398.28;;;2.26
15701;BMP180;7950;42.744;23.174;2024-03-22T02:02:41;94395.31;;;2.35
15701;BMP180;7950;42.744;23.174;2024-03-22T02:05:12;94390.53;;;2.39
15701;BMP180;7950;42.744;23.174;2024-03-22T02:07:39;94393.91;;;2.46
15701;BMP180;7950;42.744;23.174;2024-03-22T02:10:07;94390.13;;;2.55
15701;BMP180;7950;42.744;23.174;2024-03-22T02:12:37;94393.13;;;2.32
15701;BMP180;7950;42.744;23.174;2024-03-22T02:15:06;94400.50;;;2.29
15701;BMP180;7950;42.744;23.174;2024-03-22T02:17:35;94393.75;;;2.28
15701;BMP180;7950;42.744;23.174;2024-03-22T02:20:04;94394.13;;;2.31
15701;BMP180;7950;42.744;23.174;2024-03-22T02:22:31;94395.13;;;2.30
15701;BMP180;7950;42.744;23.174;2024-03-22T02:25:00;94402.91;;;2.30
15701;BMP180;7950;42.744;23.174;2024-03-22T02:27:27;94404.09;;;2.28
15701;BMP180;7950;42.744;23.174;2024-03-22T02:29:54;94397.72;;;2.30
15701;BMP180;7950;42.744;23.174;2024-03-22T02:32:21;94408.06;;;2.30
15701;BMP180;7950;42.744;23.174;2024-03-22T02:34:49;94409.66;;;2.31
15701;BMP180;7950;42.744;23.174;2024-03-22T02:37:16;94404.88;;;2.28
15701;BMP180;7950;42.744;23.174;2024-03-22T02:39:43;94414.22;;;2.36
15701;BMP180;7950;42.744;23.174;2024-03-22T02:42:12;94406.06;;;2.26
15701;BMP180;7950;42.744;23.174;2024-03-22T02:44:40;94410.66;;;2.37
15701;BMP180;7950;42.744;23.174;2024-03-22T02:47:09;94422.59;;;2.44
15701;BMP180;7950;42.744;23.174;2024-03-22T02:49:39;94422.78;;;2.43
15701;BMP180;7950;42.744;23.174;2024-03-22T02:52:06;94417.41;;;2.38
15701;BMP180;7950;42.744;23.174;2024-03-22T02:54:33;94421.97;;;2.23
15701;BMP180;7950;42.744;23.174;2024-03-22T02:57:00;94419.00;;;2.39
15701;BMP180;7950;42.744;23.174;2024-03-22T02:59:29;94425.94;;;2.51
15701;BMP180;7950;42.744;23.174;2024-03-22T03:01:56;94432.13;;;2.57
15701;BMP180;7950;42.744;23.174;2024-03-22T03:04:24;94423.19;;;2.46
15701;BMP180;7950;42.744;23.174;2024-03-22T03:06:50;94429.16;;;2.47
15701;BMP180;7950;42.744;23.174;2024-03-22T03:09:18;94432.94;;;2.44
15701;BMP180;7950;42.744;23.174;2024-03-22T03:11:45;94426.78;;;2.39
15701;BMP180;7950;42.744;23.174;2024-03-22T03:14:13;94419.63;;;2.34
15701;BMP180;7950;42.744;23.174;2024-03-22T03:16:41;94436.53;;;2.24
15701;BMP180;7950;42.744;23.174;2024-03-22T03:19:09;94421.19;;;2.22
15701;BMP180;7950;42.744;23.174;2024-03-22T03:21:35;94426.78;;;2.26
15701;BMP180;7950;42.744;23.174;2024-03-22T03:24:04;94426.19;;;2.24
15701;BMP180;7950;42.744;23.174;2024-03-22T03:26:30;94431.75;;;2.14
15701;BMP180;7950;42.744;23.174;2024-03-22T03:28:58;94428.56;;;2.06
15701;BMP180;7950;42.744;23.174;2024-03-22T03:31:25;94426.53;;;1.95
15701;BMP180;7950;42.744;23.174;2024-03-22T03:33:54;94441.69;;;2.11
15701;BMP180;7950;42.744;23.174;2024-03-22T03:36:21;94435.34;;;2.20
15701;BMP180;7950;42.744;23.174;2024-03-22T03:38:49;94438.72;;;2.27
15701;BMP180;7950;42.744;23.174;2024-03-22T03:41:16;94441.50;;;2.12
15701;BMP180;7950;42.744;23.174;2024-03-22T03:43:44;94444.28;;;2.11
15701;BMP180;7950;42.744;23.174;2024-03-22T03:46:10;94443.69;;;2.15
15701;BMP180;7950;42.744;23.174;2024-03-22T03:48:38;94451.25;;;2.23
15701;BMP180;7950;42.744;23.174;2024-03-22T03:51:07;94455.63;;;2.23
15701;BMP180;7950;42.744;23.174;2024-03-22T03:53:34;94458.81;;;2.25
15701;BMP180;7950;42.744;23.174;2024-03-22T03:56:01;94461.41;;;2.31
15701;BMP180;7950;42.744;23.174;2024-03-22T03:58:29;94460.41;;;2.26
15701;BMP180;7950;42.744;23.174;2024-03-22T04:00:56;94459.63;;;2.19
15701;BMP180;7950;42.744;23.174;2024-03-22T04:03:24;94470.16;;;2.17
15701;BMP180;7950;42.744;23.174;2024-03-22T04:05:56;94469.38;;;2.23
15701;BMP180;7950;42.744;23.174;2024-03-22T04:08:26;94463.38;;;2.16
15701;BMP180;7950;42.744;23.174;2024-03-22T04:10:53;94480.50;;;2.04
15701;BMP180;7950;42.744;23.174;2024-03-22T04:13:23;94485.66;;;2.04
15701;BMP180;7950;42.744;23.174;2024-03-22T04:15:50;94485.88;;;2.09
15701;BMP180;7950;42.744;23.174;2024-03-22T04:18:18;94496.38;;;1.95
15701;BMP180;7950;42.744;23.174;2024-03-22T04:20:54;94486.47;;;2.11
15701;BMP180;7950;42.744;23.174;2024-03-22T04:23:23;94499.78;;;2.02
15701;BMP180;7950;42.744;23.174;2024-03-22T04:25:57;94496.19;;;1.90
15701;BMP180;7950;42.744;23.174;2024-03-22T04:28:25;94499.75;;;1.89
15701;BMP180;7950;42.744;23.174;2024-03-22T04:30:59;94495.34;;;1.83
15701;BMP180;7950;42.744;23.174;2024-03-22T04:33:27;94497.91;;;1.76
15701;BMP180;7950;42.744;23.174;2024-03-22T04:35:55;94494.34;;;1.71
15701;BMP180;7950;42.744;23.174;2024-03-22T04:38:24;94508.91;;;1.85
15701;BMP180;7950;42.744;23.174;2024-03-22T04:40:53;94507.81;;;1.60
15701;BMP180;7950;42.744;23.174;2024-03-22T04:43:22;94517.13;;;1.54
15701;BMP180;7950;42.744;23.174;2024-03-22T04:45:51;94515.34;;;1.55
15701;BMP180;7950;42.744;23.174;2024-03-22T04:48:21;94524.09;;;1.54
15701;BMP180;7950;42.744;23.174;2024-03-22T04:50:49;94515.22;;;1.29
15701;BMP180;7950;42.744;23.174;2024-03-22T04:53:16;94517.94;;;1.55
15701;BMP180;7950;42.744;23.174;2024-03-22T04:55:45;94513.75;;;1.54
15701;BMP180;7950;42.744;23.174;2024-03-22T04:58:16;94516.75;;;1.57
15701;BMP180;7950;42.744;23.174;2024-03-22T05:00:44;94520.16;;;1.58
15701;BMP180;7950;42.744;23.174;2024-03-22T05:03:12;94515.00;;;1.64
15701;BMP180;7950;42.744;23.174;2024-03-22T05:05:40;94529.16;;;1.75
15701;BMP180;7950;42.744;23.174;2024-03-22T05:08:08;94526.38;;;1.83
15701;BMP180;7950;42.744;23.174;2024-03-22T05:10:36;94516.72;;;2.04
15701;BMP180;7950;42.744;23.174;2024-03-22T05:13:03;94525.09;;;2.13
15701;BMP180;7950;42.744;23.174;2024-03-22T05:15:32;94529.28;;;2.20
15701;BMP180;7950;42.744;23.174;2024-03-22T05:18:00;94538.66;;;2.41
15701;BMP180;7950;42.744;23.174;2024-03-22T05:20:27;94533.31;;;2.55
15701;BMP180;7950;42.744;23.174;2024-03-22T05:22:55;94529.53;;;2.71
15701;BMP180;7950;42.744;23.174;2024-03-22T05:25:23;94534.53;;;2.85
15701;BMP180;7950;42.744;23.174;2024-03-22T05:27:49;94533.50;;;2.99
15701;BMP180;7950;42.744;23.174;2024-03-22T05:30:18;94533.47;;;3.32
15701;BMP180;7950;42.744;23.174;2024-03-22T05:32:46;94539.84;;;3.42
15701;BMP180;7950;42.744;23.174;2024-03-22T05:35:15;94536.00;;;3.58
15701;BMP180;7950;42.744;23.174;2024-03-22T05:37:42;94537.16;;;3.75
15701;BMP180;7950;42.744;23.174;2024-03-22T05:40:11;94538.69;;;3.89
15701;BMP180;7950;42.744;23.174;2024-03-22T05:42:38;94537.59;;;4.09
15701;BMP180;7950;42.744;23.174;2024-03-22T05:45:07;94546.63;;;4.38
15701;BMP180;7950;42.744;23.174;2024-03-22T05:47:34;94537.81;;;4.70
15701;BMP180;7950;42.744;23.174;2024-03-22T05:50:07;94546.78;;;4.98
15701;BMP180;7950;42.744;23.174;2024-03-22T05:52:35;94551.00;;;5.24
15701;BMP180;7950;42.744;23.174;2024-03-22T05:55:03;94543.38;;;5.47
15701;BMP180;7950;42.744;23.174;2024-03-22T05:57:30;94543.53;;;5.70
15701;BMP180;7950;42.744;23.174;2024-03-22T05:59:58;94559.31;;;5.93
15701;BMP180;7950;42.744;23.174;2024-03-22T06:02:25;94551.06;;;6.14
15701;BMP180;7950;42.744;23.174;2024-03-22T06:04:53;94555.13;;;6.39
15701;BMP180;7950;42.744;23.174;2024-03-22T06:07:21;94554.84;;;6.59
15701;BMP180;7950;42.744;23.174;2024-03-22T06:09:49;94547.34;;;6.80
15701;BMP180;7950;42.744;23.174;2024-03-22T06:12:16;94553.47;;;6.97
15701;BMP180;7950;42.744;23.174;2024-03-22T06:14:44;94553.63;;;7.14
15701;BMP180;7950;42.744;23.174;2024-03-22T06:17:13;94555.00;;;7.28
15701;BMP180;7950;42.744;23.174;2024-03-22T06:19:42;94545.50;;;7.45
15701;BMP180;7950;42.744;23.174;2024-03-22T06:22:08;94546.41;;;7.62
15701;BMP180;7950;42.744;23.174;2024-03-22T06:24:38;94546.69;;;7.77
15701;BMP180;7950;42.744;23.174;2024-03-22T06:27:05;94556.59;;;7.86
15701;BMP180;7950;42.744;23.174;2024-03-22T06:29:33;94552.09;;;7.98
15701;BMP180;7950;42.744;23.174;2024-03-22T06:32:00;94548.22;;;8.12
15701;BMP180;7950;42.744;23.174;2024-03-22T06:34:27;94545.13;;;8.27
15701;BMP180;7950;42.744;23.174;2024-03-22T06:36:54;94542.97;;;8.35
15701;BMP180;7950;42.744;23.174;2024-03-22T06:39:21;94548.56;;;8.55
15701;BMP180;7950;42.744;23.174;2024-03-22T06:41:49;94548.84;;;8.70
15701;BMP180;7950;42.744;23.174;2024-03-22T06:44:17;94556.06;;;8.80
15701;BMP180;7950;42.744;23.174;2024-03-22T06:46:44;94554.84;;;8.99
15701;BMP180;7950;42.744;23.174;2024-03-22T06:49:12;94559.84;;;9.17
15701;BMP180;7950;42.744;23.174;2024-03-22T06:51:38;94556.56;;;9.27
15701;BMP180;7950;42.744;23.174;2024-03-22T06:54:06;94569.91;;;9.42
15701;BMP180;7950;42.744;23.174;2024-03-22T06:56:33;94564.97;;;9.62
15701;BMP180;7950;42.744;23.174;2024-03-22T06:59:02;94552.59;;;9.74
15701;BMP180;7950;42.744;23.174;2024-03-22T07:01:29;94564.00;;;9.84
15701;BMP180;7950;42.744;23.174;2024-03-22T07:03:57;94572.56;;;9.96
15701;BMP180;7950;42.744;23.174;2024-03-22T07:06:23;94573.31;;;10.13
15701;BMP180;7950;42.744;23.174;2024-03-22T07:08:51;94569.63;;;10.31
15701;BMP180;7950;42.744;23.174;2024-03-22T07:11:18;94572.91;;;10.43
15701;BMP180;7950;42.744;23.174;2024-03-22T07:13:46;94570.22;;;10.59
15701;BMP180;7950;42.744;23.174;2024-03-22T07:16:14;94574.50;;;10.70
15701;BMP180;7950;42.744;23.174;2024-03-22T07:18:42;94574.13;;;10.83
15701;BMP180;7950;42.744;23.174;2024-03-22T07:21:08;94561.66;;;10.95
15701;BMP180;7950;42.744;23.174;2024-03-22T07:23:36;94572.28;;;11.10
15701;BMP180;7950;42.744;23.174;2024-03-22T07:26:03;94567.69;;;11.22
15701;BMP180;7950;42.744;23.174;2024-03-22T07:28:32;94564.91;;;11.39
15701;BMP180;7950;42.744;23.174;2024-03-22T07:30:58;94563.19;;;11.54
15701;BMP180;7950;42.744;23.174;2024-03-22T07:33:27;94572.56;;;11.72
15701;BMP180;7950;42.744;23.174;2024-03-22T07:35:55;94572.59;;;11.77
15701;BMP180;7950;42.744;23.174;2024-03-22T07:38:22;94568.50;;;11.59
15701;BMP180;7950;42.744;23.174;2024-03-22T07:40:49;94569.69;;;11.73
15701;BMP180;7950;42.744;23.174;2024-03-22T07:43:16;94566.25;;;11.73
15701;BMP180;7950;42.744;23.174;2024-03-22T07:45:44;94566.06;;;11.84
15701;BMP180;7950;42.744;23.174;2024-03-22T07:48:10;94562.38;;;11.85
15701;BMP180;7950;42.744;23.174;2024-03-22T07:50:39;94566.47;;;12.08
15701;BMP180;7950;42.744;23.174;2024-03-22T07:53:06;94561.50;;;12.11
15701;BMP180;7950;42.744;23.174;2024-03-22T07:55:34;94570.03;;;11.87
15701;BMP180;7950;42.744;23.174;2024-03-22T07:58:02;94560.38;;;11.97
15701;BMP180;7950;42.744;23.174;2024-03-22T08:00:29;94562.03;;;12.13
15701;BMP180;7950;42.744;23.174;2024-03-22T08:02:57;94565.16;;;12.10
15701;BMP180;7950;42.744;23.174;2024-03-22T08:05:23;94559.19;;;12.20
15701;BMP180;7950;42.744;23.174;2024-03-22T08:07:52;94566.16;;;12.51
15701;BMP180;7950;42.744;23.174;2024-03-22T08:10:19;94564.38;;;12.10
15701;BMP180;7950;42.744;23.174;2024-03-22T08:12:46;94561.66;;;11.95
15701;BMP180;7950;42.744;23.174;2024-03-22T08:15:13;94574.19;;;11.83
15701;BMP180;7950;42.744;23.174;2024-03-22T08:17:41;94558.81;;;12.01
15701;BMP180;7950;42.744;23.174;2024-03-22T08:20:08;94559.88;;;12.05
15701;BMP180;7950;42.744;23.174;2024-03-22T08:22:35;94568.09;;;12.19
15701;BMP180;7950;42.744;23.174;2024-03-22T08:25:04;94544.53;;;12.44
15701;BMP180;7950;42.744;23.174;2024-03-22T08:27:33;94553.84;;;12.66
15701;BMP180;7950;42.744;23.174;2024-03-22T08:30:01;94552.28;;;12.70
15701;BMP180;7950;42.744;23.174;2024-03-22T08:32:30;94544.31;;;12.55
15701;BMP180;7950;42.744;23.174;2024-03-22T08:34:56;94547.53;;;12.72
15701;BMP180;7950;42.744;23.174;2024-03-22T08:37:24;94555.38;;;12.52
15701;BMP180;7950;42.744;23.174;2024-03-22T08:39:50;94542.72;;;12.44
15701;BMP180;7950;42.744;23.174;2024-03-22T08:42:19;94550.06;;;12.47
15701;BMP180;7950;42.744;23.174;2024-03-22T08:44:46;94554.91;;;12.70
15701;BMP180;7950;42.744;23.174;2024-03-22T08:47:13;94549.06;;;12.53
15701;BMP180;7950;42.744;23.174;2024-03-22T08:49:40;94545.16;;;12.71
15701;BMP180;7950;42.744;23.174;2024-03-22T08:52:10;94550.38;;;12.56
15701;BMP180;7950;42.744;23.174;2024-03-22T08:54:37;94554.28;;;12.43
15701;BMP180;7950;42.744;23.174;2024-03-22T08:57:06;94561.59;;;12.26
15701;BMP180;7950;42.744;23.174;2024-03-22T08:59:34;94551.41;;;12.50
15701;BMP180;7950;42.744;23.174;2024-03-22T09:02:03;94548.03;;;12.69
15701;BMP180;7950;42.744;23.174;2024-03-22T09:04:29;94546.06;;;13.01
15701;BMP180;7950;42.744;23.174;2024-03-22T09:06:57;94545.00;;;13.07
15701;BMP180;7950;42.744;23.174;2024-03-22T09:09:24;94552.63;;;13.09
15701;BMP180;7950;42.744;23.174;2024-03-22T09:11:52;94540.19;;;12.94
15701;BMP180;7950;42.744;23.174;2024-03-22T09:14:18;94535.69;;;12.80
15701;BMP180;7950;42.744;23.174;2024-03-22T09:16:48;94533.91;;;13.00
15701;BMP180;7950;42.744;23.174;2024-03-22T09:19:14;94530.78;;;13.13
15701;BMP180;7950;42.744;23.174;2024-03-22T09:21:42;94526.31;;;13.34
15701;BMP180;7950;42.744;23.174;2024-03-22T09:24:09;94530.78;;;13.43
15701;BMP180;7950;42.744;23.174;2024-03-22T09:26:37;94521.28;;;13.02
15701;BMP180;7950;42.744;23.174;2024-03-22T09:29:03;94532.81;;;12.86
15701;BMP180;7950;42.744;23.174;2024-03-22T09:31:31;94522.53;;;12.80
15701;BMP180;7950;42.744;23.174;2024-03-22T09:34:01;94527.34;;;13.03
15701;BMP180;7950;42.744;23.174;2024-03-22T09:36:28;94523.94;;;13.12
15701;BMP180;7950;42.744;23.174;2024-03-22T09:39:01;94517.88;;;13.22
15701;BMP180;7950;42.744;23.174;2024-03-22T09:41:31;94511.31;;;13.49
15701;BMP180;7950;42.744;23.174;2024-03-22T09:44:02;94512.06;;;13.50
15701;BMP180;7950;42.744;23.174;2024-03-22T09:46:31;94511.28;;;13.59
15701;BMP180;7950;42.744;23.174;2024-03-22T09:49:01;94511.28;;;13.59
15701;BMP180;7950;42.744;23.174;2024-03-22T09:51:29;94520.22;;;13.68
15701;BMP180;7950;42.744;23.174;2024-03-22T09:53:58;94516.81;;;13.63
15701;BMP180;7950;42.744;23.174;2024-03-22T09:56:27;94507.88;;;13.44
15701;BMP180;7950;42.744;23.174;2024-03-22T09:58:57;94500.72;;;13.64
15701;BMP180;7950;42.744;23.174;2024-03-22T10:01:24;94499.91;;;13.69
15701;BMP180;7950;42.744;23.174;2024-03-22T10:03:52;94495.97;;;13.71
15701;BMP180;7950;42.744;23.174;2024-03-22T10:06:23;94498.59;;;13.76
15701;BMP180;7950;42.744;23.174;2024-03-22T10:08:51;94491.75;;;13.65
15701;BMP180;7950;42.744;23.174;2024-03-22T10:11:17;94489.38;;;13.69
15701;BMP180;7950;42.744;23.174;2024-03-22T10:13:45;94498.59;;;13.81
15701;BMP180;7950;42.744;23.174;2024-03-22T10:16:13;94486.47;;;13.80
15701;BMP180;7950;42.744;23.174;2024-03-22T10:18:41;94489.56;;;13.97
15701;BMP180;7950;42.744;23.174;2024-03-22T10:21:08;94483.97;;;14.24
15701;BMP180;7950;42.744;23.174;2024-03-22T10:23:37;94482.75;;;14.55
15701;BMP180;7950;42.744;23.174;2024-03-22T10:26:05;94481.16;;;14.59
15701;BMP180;7950;42.744;23.174;2024-03-22T10:28:32;94481.66;;;14.61
15701;BMP180;7950;42.744;23.174;2024-03-22T10:30:59;94482.91;;;14.78
15701;BMP180;7950;42.744;23.174;2024-03-22T10:33:29;94467.66;;;15.04
15701;BMP180;7950;42.744;23.174;2024-03-22T10:35:55;94469.81;;;15.02
15701;BMP180;7950;42.744;23.174;2024-03-22T10:38:23;94473.66;;;15.14
15701;BMP180;7950;42.744;23.174;2024-03-22T10:40:51;94466.72;;;15.23
15701;BMP180;7950;42.744;23.174;2024-03-22T10:43:19;94465.78;;;15.09
15701;BMP180;7950;42.744;23.174;2024-03-22T10:45:48;94455.34;;;14.89
15701;BMP180;7950;42.744;23.174;2024-03-22T10:48:19;94454.72;;;15.02
15701;BMP180;7950;42.744;23.174;2024-03-22T10:50:50;94447.78;;;15.11
15701;BMP180;7950;42.744;23.174;2024-03-22T10:53:24;94443.28;;;14.78
15701;BMP180;7950;42.744;23.174;2024-03-22T10:55:57;94441.25;;;14.65
15701;BMP180;7950;42.744;23.174;2024-03-22T10:58:26;94435.81;;;14.85
15701;BMP180;7950;42.744;23.174;2024-03-22T11:00:56;94432.00;;;15.01
15701;BMP180;7950;42.744;23.174;2024-03-22T11:03:24;94427.03;;;15.28
15701;BMP180;7950;42.744;23.174;2024-03-22T11:05:56;94421.28;;;15.50
15701;BMP180;7950;42.744;23.174;2024-03-22T11:08:27;94421.56;;;15.20
15701;BMP180;7950;42.744;23.174;2024-03-22T11:10:57;94432.06;;;14.53
15701;BMP180;7950;42.744;23.174;2024-03-22T11:13:24;94425.56;;;14.40
15701;BMP180;7950;42.744;23.174;2024-03-22T11:15:51;94421.44;;;14.24
15701;BMP180;7950;42.744;23.174;2024-03-22T11:18:18;94430.09;;;14.30
15701;BMP180;7950;42.744;23.174;2024-03-22T11:20:46;94423.16;;;14.44
15701;BMP180;7950;42.744;23.174;2024-03-22T11:23:12;94420.09;;;14.70
15701;BMP180;7950;42.744;23.174;2024-03-22T11:25:40;94410.63;;;15.03
15701;BMP180;7950;42.744;23.174;2024-03-22T11:28:09;94413.38;;;15.16
15701;BMP180;7950;42.744;23.174;2024-03-22T11:30:36;94407.72;;;15.33
15701;BMP180;7950;42.744;23.174;2024-03-22T11:33:04;94397.56;;;15.45
15701;BMP180;7950;42.744;23.174;2024-03-22T11:35:34;94401.63;;;15.61
15701;BMP180;7950;42.744;23.174;2024-03-22T11:38:00;94397.56;;;15.68
15701;BMP180;7950;42.744;23.174;2024-03-22T11:40:31;94399.59;;;15.53
15701;BMP180;7950;42.744;23.174;2024-03-22T11:43:00;94399.91;;;15.46
15701;BMP180;7950;42.744;23.174;2024-03-22T11:45:30;94400.13;;;15.50
15701;BMP180;7950;42.744;23.174;2024-03-22T11:48:02;94398.81;;;15.52
15701;BMP180;7950;42.744;23.174;2024-03-22T11:50:30;94386.78;;;15.65
15701;BMP180;7950;42.744;23.174;2024-03-22T11:52:56;94384.25;;;15.55
15701;BMP180;7950;42.744;23.174;2024-03-22T11:55:27;94382.50;;;15.45
15701;BMP180;7950;42.744;23.174;2024-03-22T11:57:53;94376.00;;;15.28
15701;BMP180;7950;42.744;23.174;2024-03-22T12:00:25;94374.31;;;15.13
15701;BMP180;7950;42.744;23.174;2024-03-22T12:02:54;94371.03;;;15.26
15701;BMP180;7950;42.744;23.174;2024-03-22T12:05:21;94368.47;;;15.45
15701;BMP180;7950;42.744;23.174;2024-03-22T12:07:48;94363.03;;;15.60
15701;BMP180;7950;42.744;23.174;2024-03-22T12:10:16;94361.34;;;15.69
15701;BMP180;7950;42.744;23.174;2024-03-22T12:12:42;94348.22;;;15.82
15701;BMP180;7950;42.744;23.174;2024-03-22T12:15:09;94356.19;;;16.01
15701;BMP180;7950;42.744;23.174;2024-03-22T12:17:37;94358.41;;;16.12
15701;BMP180;7950;42.744;23.174;2024-03-22T12:20:09;94358.22;;;16.27
15701;BMP180;7950;42.744;23.174;2024-03-22T12:22:36;94355.47;;;16.14
15701;BMP180;7950;42.744;23.174;2024-03-22T12:25:04;94351.31;;;15.89
15701;BMP180;7950;42.744;23.174;2024-03-22T12:27:32;94337.97;;;15.76
15701;BMP180;7950;42.744;23.174;2024-03-22T12:29:59;94337.06;;;15.85
15701;BMP180;7950;42.744;23.174;2024-03-22T12:32:26;94334.50;;;15.80
15701;BMP180;7950;42.744;23.174;2024-03-22T12:34:53;94333.56;;;15.48
15701;BMP180;7950;42.744;23.174;2024-03-22T12:37:22;94328.22;;;15.53
15701;BMP180;7950;42.744;23.174;2024-03-22T12:39:50;94330.78;;;15.34
15701;BMP180;7950;42.744;23.174;2024-03-22T12:42:18;94332.88;;;15.37
15701;BMP180;7950;42.744;23.174;2024-03-22T12:44:46;94335.09;;;15.25
15701;BMP180;7950;42.744;23.174;2024-03-22T12:47:12;94335.47;;;15.14
15701;BMP180;7950;42.744;23.174;2024-03-22T12:49:40;94334.03;;;15.26
15701;BMP180;7950;42.744;23.174;2024-03-22T12:52:07;94332.19;;;14.98
15701;BMP180;7950;42.744;23.174;2024-03-22T12:54:36;94331.81;;;14.81
15701;BMP180;7950;42.744;23.174;2024-03-22T12:57:03;94335.66;;;14.65
15701;BMP180;7950;42.744;23.174;2024-03-22T12:59:31;94328.59;;;14.56
15701;BMP180;7950;42.744;23.174;2024-03-22T13:01:58;94337.00;;;14.63
15701;BMP180;7950;42.744;23.174;2024-03-22T13:04:27;94330.88;;;14.67
15701;BMP180;7950;42.744;23.174;2024-03-22T13:06:54;94320.25;;;14.72
15701;BMP180;7950;42.744;23.174;2024-03-22T13:09:22;94328.81;;;14.64
15701;BMP180;7950;42.744;23.174;2024-03-22T13:11:50;94314.31;;;14.57
15701;BMP180;7950;42.744;23.174;2024-03-22T13:14:17;94322.44;;;14.65
15701;BMP180;7950;42.744;23.174;2024-03-22T13:16:46;94323.38;;;14.79
15701;BMP180;7950;42.744;23.174;2024-03-22T13:19:14;94317.69;;;14.96
15701;BMP180;7950;42.744;23.174;2024-03-22T13:21:41;94309.84;;;15.14
15701;BMP180;7950;42.744;23.174;2024-03-22T13:24:14;94302.94;;;15.18
15701;BMP180;7950;42.744;23.174;2024-03-22T13:26:40;94306.72;;;15.36
15701;BMP180;7950;42.744;23.174;2024-03-22T13:29:09;94306.56;;;15.51
15701;BMP180;7950;42.744;23.174;2024-03-22T13:31:35;94303.06;;;15.55
15701;BMP180;7950;42.744;23.174;2024-03-22T13:34:03;94298.78;;;15.59
15701;BMP180;7950;42.744;23.174;2024-03-22T13:36:30;94298.72;;;15.41
15701;BMP180;7950;42.744;23.174;2024-03-22T13:38:59;94301.16;;;15.37
15701;BMP180;7950;42.744;23.174;2024-03-22T13:41:25;94303.84;;;15.32
15701;BMP180;7950;42.744;23.174;2024-03-22T13:43:53;94290.03;;;15.40
15701;BMP180;7950;42.744;23.174;2024-03-22T13:46:21;94297.69;;;15.42
15701;BMP180;7950;42.744;23.174;2024-03-22T13:48:48;94289.44;;;15.43
15701;BMP180;7950;42.744;23.174;2024-03-22T13:51:15;94287.59;;;15.44
15701;BMP180;7950;42.744;23.174;2024-03-22T13:53:43;94289.97;;;15.45
15701;BMP180;7950;42.744;23.174;2024-03-22T13:56:09;94278.53;;;15.26
15701;BMP180;7950;42.744;23.174;2024-03-22T13:58:37;94273.00;;;15.23
15701;BMP180;7950;42.744;23.174;2024-03-22T14:01:04;94271.91;;;15.05
15701;BMP180;7950;42.744;23.174;2024-03-22T14:03:33;94274.13;;;14.93
15701;BMP180;7950;42.744;23.174;2024-03-22T14:05:59;94261.31;;;15.05
15701;BMP180;7950;42.744;23.174;2024-03-22T14:08:28;94267.63;;;15.09
15701;BMP180;7950;42.744;23.174;2024-03-22T14:10:55;94268.00;;;15.21
15701;BMP180;7950;42.744;23.174;2024-03-22T14:13:22;94261.22;;;15.15
15701;BMP180;7950;42.744;23.174;2024-03-22T14:15:49;94264.41;;;15.12
15701;BMP180;7950;42.744;23.174;2024-03-22T14:18:16;94257.59;;;15.06